createdAt,value
2022-11-09T00:02:26.537Z,100652.28
2022-11-09T00:05:29.085Z,100654.53
2022-11-09T00:08:33.151Z,100641.00
2022-11-09T00:11:36.087Z,100649.00
2022-11-09T00:14:38.828Z,100641.84
2022-11-09T00:17:41.571Z,100644.06
2022-11-09T00:23:52.165Z,100645.97
2022-11-09T00:26:54.949Z,100650.91
2022-11-09T00:29:57.482Z,100636.31
2022-11-09T00:33:00.331Z,100640.78
2022-11-09T00:36:07.581Z,100636.38
2022-11-09T00:39:11.613Z,100629.22
2022-11-09T00:42:14.313Z,100623.19
2022-11-09T00:45:17.116Z,100633.06
2022-11-09T00:48:19.823Z,100617.38
2022-11-09T00:51:22.451Z,100616.03
2022-11-09T00:54:26.558Z,100619.03
2022-11-09T00:57:29.354Z,100617.94
2022-11-09T01:00:31.935Z,100616.84
2022-11-09T01:03:34.794Z,100620.97
2022-11-09T01:06:37.453Z,100621.78
2022-11-09T01:09:41.468Z,100622.88
2022-11-09T01:12:44.170Z,100626.72
2022-11-09T01:15:49.212Z,100621.50
2022-11-09T01:18:54.291Z,100612.09
2022-11-09T01:21:56.841Z,100611.84
2022-11-09T01:25:00.994Z,100608.25
2022-11-09T01:28:04.627Z,100611.56
2022-11-09T01:31:08.657Z,100602.75
2022-11-09T01:34:14.571Z,100595.34
2022-11-09T01:37:17.131Z,100604.94
2022-11-09T01:40:21.190Z,100608.25
2022-11-09T01:43:25.366Z,100616.00
2022-11-09T01:46:35.514Z,100612.94
2022-11-09T01:49:42.121Z,100608.50
2022-11-09T01:52:48.307Z,100601.09
2022-11-09T01:55:56.410Z,100608.84
2022-11-09T01:59:02.688Z,100607.97
2022-11-09T02:02:06.135Z,100603.84
2022-11-09T02:05:13.813Z,100591.19
2022-11-09T02:08:19.690Z,100585.63
2022-11-09T02:11:25.329Z,100582.91
2022-11-09T02:14:30.737Z,100585.66
2022-11-09T02:17:35.150Z,100574.66
2022-11-09T02:20:48.400Z,100572.66
2022-11-09T02:23:51.738Z,100574.56
2022-11-09T02:26:55.782Z,100575.94
2022-11-09T02:30:00.247Z,100574.31
2022-11-09T02:33:02.822Z,100572.63
2022-11-09T02:36:07.277Z,100572.88
2022-11-09T02:39:11.139Z,100559.41
2022-11-09T02:42:21.261Z,100560.25
2022-11-09T02:45:24.478Z,100563.56
2022-11-09T02:48:27.287Z,100566.34
2022-11-09T02:51:31.678Z,100570.16
2022-11-09T02:54:34.293Z,100578.63
2022-11-09T02:57:37.045Z,100573.16
2022-11-09T03:00:39.742Z,100564.63
2022-11-09T03:03:42.438Z,100560.81
2022-11-09T03:06:46.532Z,100557.56
2022-11-09T03:09:49.103Z,100558.94
2022-11-09T03:12:51.825Z,100549.81
2022-11-09T03:15:54.622Z,100543.50
2022-11-09T03:18:58.093Z,100538.53
2022-11-09T03:22:02.201Z,100545.97
2022-11-09T03:25:05.328Z,100542.13
2022-11-09T03:28:09.085Z,100542.69
2022-11-09T03:31:11.967Z,100558.38
2022-11-09T03:34:14.770Z,100552.06
2022-11-09T03:37:19.375Z,100564.72
2022-11-09T03:40:22.402Z,100570.22
2022-11-09T03:43:25.099Z,100579.59
2022-11-09T03:46:28.078Z,100578.50
2022-11-09T03:49:30.736Z,100585.94
2022-11-09T03:52:35.085Z,100588.13
2022-11-09T03:55:38.310Z,100583.44
2022-11-09T03:58:41.043Z,100580.19
2022-11-09T04:01:43.809Z,100580.75
2022-11-09T04:04:46.478Z,100589.53
2022-11-09T04:07:52.302Z,100587.84
2022-11-09T04:10:55.505Z,100584.56
2022-11-09T04:13:58.236Z,100583.44
2022-11-09T04:17:00.913Z,100580.44
2022-11-09T04:20:03.652Z,100582.63
2022-11-09T04:23:10.955Z,100566.38
2022-11-09T04:26:13.491Z,100579.84
2022-11-09T04:29:16.194Z,100574.03
2022-11-09T04:32:18.986Z,100571.28
2022-11-09T04:35:21.560Z,100574.00
2022-11-09T04:38:25.513Z,100569.63
2022-11-09T04:41:28.825Z,100573.22
2022-11-09T04:44:31.380Z,100581.75
2022-11-09T04:47:33.935Z,100574.00
2022-11-09T04:50:36.765Z,100572.38
2022-11-09T04:53:41.415Z,100569.88
2022-11-09T04:56:44.029Z,100585.31
2022-11-09T04:59:46.774Z,100582.56
2022-11-09T05:02:49.329Z,100575.69
2022-11-09T05:05:51.990Z,100593.28
2022-11-09T05:08:57.078Z,100589.22
2022-11-09T05:11:59.649Z,100591.41
2022-11-09T05:15:02.343Z,100585.63
2022-11-09T05:18:06.236Z,100581.78
2022-11-09T05:21:08.797Z,100583.16
2022-11-09T05:24:13.063Z,100593.09
2022-11-09T05:27:17.321Z,100594.47
2022-11-09T05:30:20.320Z,100598.88
2022-11-09T05:33:23.365Z,100594.47
2022-11-09T05:36:27.761Z,100588.44
2022-11-09T05:39:31.762Z,100601.88
2022-11-09T05:42:34.330Z,100597.50
2022-11-09T05:45:42.733Z,100587.06
2022-11-09T05:48:46.624Z,100583.75
2022-11-09T05:51:49.172Z,100586.78
2022-11-09T05:54:53.079Z,100593.69
2022-11-09T05:57:55.785Z,100596.44
2022-11-09T06:00:59.899Z,100598.38
2022-11-09T06:04:02.623Z,100609.06
2022-11-09T06:07:05.295Z,100592.84
2022-11-09T06:10:10.596Z,100596.47
2022-11-09T06:13:13.157Z,100588.19
2022-11-09T06:16:15.908Z,100600.59
2022-11-09T06:19:18.490Z,100603.34
2022-11-09T06:22:21.060Z,100608.03
2022-11-09T06:25:25.873Z,100613.53
2022-11-09T06:28:28.912Z,100615.72
2022-11-09T06:31:31.658Z,100619.59
2022-11-09T06:34:34.395Z,100619.31
2022-11-09T06:37:37.196Z,100628.66
2022-11-09T06:40:41.230Z,100632.81
2022-11-09T06:43:44.019Z,100633.63
2022-11-09T06:46:46.611Z,100637.19
2022-11-09T06:49:49.342Z,100639.06
2022-11-09T06:52:51.921Z,100643.47
2022-11-09T06:55:58.762Z,100647.63
2022-11-09T06:59:01.343Z,100644.03
2022-11-09T07:02:04.069Z,100642.34
2022-11-09T07:05:07.282Z,100641.28
2022-11-09T07:08:10.498Z,100645.41
2022-11-09T07:11:17.018Z,100644.84
2022-11-09T07:14:19.632Z,100639.38
2022-11-09T07:17:22.334Z,100634.63
2022-11-09T07:20:25.103Z,100624.97
2022-11-09T07:23:27.737Z,100618.91
2022-11-09T07:26:31.770Z,100606.53
2022-11-09T07:29:34.364Z,100597.19
2022-11-09T07:33:07.342Z,100595.25
2022-11-09T07:36:02.074Z,100616.19
2022-11-09T07:39:09.643Z,100654.66
2022-11-09T07:42:13.684Z,100640.63
2022-11-09T07:45:16.362Z,100645.84
2022-11-09T07:48:19.103Z,100642.00
2022-11-09T07:51:21.812Z,100645.63
2022-11-09T07:54:25.759Z,100639.88
2022-11-09T07:57:29.796Z,100644.25
2022-11-09T08:00:34.602Z,100639.03
2022-11-09T08:03:37.739Z,100651.44
2022-11-09T08:06:40.351Z,100635.47
2022-11-09T08:09:43.479Z,100642.09
2022-11-09T08:12:54.573Z,100643.72
2022-11-09T08:15:57.172Z,100652.84
2022-11-09T08:18:59.863Z,100650.88
2022-11-09T08:22:02.588Z,100654.75
2022-11-09T08:25:05.766Z,100652.00
2022-11-09T08:28:14.470Z,100647.34
2022-11-09T08:31:17.685Z,100639.97
2022-11-09T08:34:20.402Z,100635.78
2022-11-09T08:37:22.996Z,100637.16
2022-11-09T08:40:26.930Z,100646.25
2022-11-09T08:43:30.893Z,100658.34
2022-11-09T08:46:38.372Z,100658.91
2022-11-09T08:49:44.575Z,100670.44
2022-11-09T08:52:47.146Z,100670.53
2022-11-09T08:55:49.836Z,100670.25
2022-11-09T08:58:53.922Z,100669.13
2022-11-09T09:01:56.668Z,100667.78
2022-11-09T09:04:59.291Z,100664.44
2022-11-09T09:08:02.753Z,100669.44
2022-11-09T09:11:06.208Z,100680.97
2022-11-09T09:14:10.303Z,100674.09
2022-11-09T09:17:13.057Z,100676.59
2022-11-09T09:20:16.281Z,100679.91
2022-11-09T09:23:19.013Z,100689.56
2022-11-09T09:26:22.321Z,100699.75
2022-11-09T09:29:26.418Z,100704.69
2022-11-09T09:32:30.069Z,100714.34
2022-11-09T09:35:32.859Z,100705.22
2022-11-09T09:38:35.539Z,100711.84
2022-11-09T09:41:41.691Z,100703.53
2022-11-09T09:44:51.942Z,100703.41
2022-11-09T09:48:00.284Z,100708.78
2022-11-09T09:51:07.782Z,100715.94
2022-11-09T09:54:17.450Z,100709.16
2022-11-09T09:57:23.088Z,100711.44
2022-11-09T10:00:29.000Z,100729.28
2022-11-09T10:03:32.289Z,100726.00
2022-11-09T10:06:44.194Z,100739.69
2022-11-09T10:10:10.992Z,100736.63
2022-11-09T10:13:30.977Z,100721.53
2022-11-09T10:16:43.847Z,100730.88
2022-11-09T10:20:01.120Z,100728.59
2022-11-09T10:23:24.508Z,100710.06
2022-11-09T10:26:34.383Z,100727.72
2022-11-09T10:29:42.742Z,100715.59
2022-11-09T10:32:51.577Z,100706.56
2022-11-09T10:36:06.856Z,100694.75
2022-11-09T10:39:14.777Z,100695.53
2022-11-09T10:42:17.470Z,100686.78
2022-11-09T10:45:29.268Z,100685.69
2022-11-09T10:48:36.539Z,100686.78
2022-11-09T10:51:42.361Z,100686.22
2022-11-09T10:54:44.984Z,100678.91
2022-11-09T10:58:00.325Z,100665.22
2022-11-09T11:01:06.074Z,100676.13
2022-11-09T11:04:23.266Z,100673.66
2022-11-09T11:07:26.393Z,100680.16
2022-11-09T11:10:29.144Z,100677.53
2022-11-09T11:13:31.769Z,100679.97
2022-11-09T11:16:35.957Z,100677.00
2022-11-09T11:19:41.551Z,100669.06
2022-11-09T11:22:44.235Z,100663.47
2022-11-09T11:26:00.730Z,100653.13
2022-11-09T11:29:14.076Z,100656.28
2022-11-09T11:32:21.269Z,100657.41
2022-11-09T11:35:35.374Z,100662.94
2022-11-09T11:38:42.460Z,100656.81
2022-11-09T11:42:15.866Z,100662.44
2022-11-09T11:45:41.580Z,100665.88
2022-11-09T11:49:10.023Z,100653.09
2022-11-09T11:52:19.644Z,100646.44
2022-11-09T11:55:40.780Z,100645.03
2022-11-09T11:58:56.699Z,100636.25
2022-11-09T12:02:23.031Z,100646.06
2022-11-09T12:05:56.260Z,100633.56
2022-11-09T12:09:22.786Z,100633.06
2022-11-09T12:12:36.408Z,100631.97
2022-11-09T12:15:51.878Z,100640.72
2022-11-09T12:19:23.876Z,100639.69
2022-11-09T12:22:40.534Z,100628.91
2022-11-09T12:25:50.032Z,100628.69
2022-11-09T12:29:08.861Z,100640.66
2022-11-09T12:32:22.357Z,100640.28
2022-11-09T12:35:33.251Z,100627.00
2022-11-09T12:38:42.414Z,100634.28
2022-11-09T12:41:49.980Z,100639.78
2022-11-09T12:45:02.898Z,100639.75
2022-11-09T12:48:16.368Z,100628.19
2022-11-09T12:51:20.813Z,100628.13
2022-11-09T12:54:25.106Z,100629.97
2022-11-09T12:57:31.206Z,100630.03
2022-11-09T13:00:51.871Z,100623.22
2022-11-09T13:03:57.563Z,100630.47
2022-11-09T13:07:49.527Z,100644.69
2022-11-09T13:11:10.152Z,100639.75
2022-11-09T13:14:39.412Z,100644.00
2022-11-09T13:17:56.955Z,100633.16
2022-11-09T13:21:35.058Z,100637.25
2022-11-09T13:24:57.120Z,100636.59
2022-11-09T13:28:00.024Z,100634.94
2022-11-09T13:31:04.900Z,100630.34
2022-11-09T13:34:46.059Z,100645.22
2022-11-09T13:37:56.047Z,100638.69
2022-11-09T13:40:59.767Z,100635.47
2022-11-09T13:44:16.186Z,100644.75
2022-11-09T13:47:25.022Z,100641.09
2022-11-09T13:50:30.053Z,100637.72
2022-11-09T13:53:52.767Z,100641.31
2022-11-09T13:56:56.308Z,100636.72
2022-11-09T14:00:00.902Z,100653.53
2022-11-09T14:03:17.025Z,100645.72
2022-11-09T14:06:20.513Z,100647.25
2022-11-09T14:09:23.270Z,100638.16
2022-11-09T14:12:42.078Z,100651.44
2022-11-09T14:15:53.279Z,100648.13
2022-11-09T14:19:17.808Z,100647.00
2022-11-09T14:22:21.284Z,100647.03
2022-11-09T14:25:25.885Z,100651.16
2022-11-09T14:28:30.444Z,100645.81
2022-11-09T14:31:33.290Z,100645.22
2022-11-09T14:34:37.519Z,100648.72
2022-11-09T14:37:45.745Z,100661.44
2022-11-09T14:40:50.001Z,100673.38
2022-11-09T14:43:54.663Z,100680.28
2022-11-09T14:46:58.199Z,100673.63
2022-11-09T14:50:02.660Z,100669.81
2022-11-09T14:53:06.033Z,100669.59
2022-11-09T14:56:12.747Z,100669.66
2022-11-09T14:59:17.391Z,100672.06
2022-11-09T15:02:22.268Z,100668.66
2022-11-09T15:05:40.032Z,100670.84
2022-11-09T15:08:51.699Z,100673.13
2022-11-09T15:11:55.071Z,100680.53
2022-11-09T15:15:01.509Z,100674.81
2022-11-09T15:18:04.547Z,100677.91
2022-11-09T15:21:21.769Z,100673.94
2022-11-09T15:24:26.765Z,100669.84
2022-11-09T15:27:32.117Z,100663.28
2022-11-09T15:30:39.853Z,100671.38
2022-11-09T15:33:49.788Z,100670.78
2022-11-09T15:36:56.399Z,100674.13
2022-11-09T15:40:00.193Z,100667.81
2022-11-09T15:43:03.087Z,100662.84
2022-11-09T15:46:06.737Z,100661.69
2022-11-09T15:49:19.079Z,100665.34
2022-11-09T15:52:23.254Z,100673.97
2022-11-09T15:55:26.592Z,100667.81
2022-11-09T15:58:29.440Z,100679.50
2022-11-09T16:01:32.947Z,100684.50
2022-11-09T16:04:35.791Z,100691.13
2022-11-09T16:07:48.257Z,100688.34
2022-11-09T16:10:50.968Z,100701.56
2022-11-09T16:13:53.653Z,100698.00
2022-11-09T16:16:56.363Z,100705.44
2022-11-09T16:19:59.022Z,100703.53
2022-11-09T16:23:03.239Z,100699.13
2022-11-09T16:26:09.205Z,100704.13
2022-11-09T16:29:12.046Z,100705.75
2022-11-09T16:32:14.709Z,100706.53
2022-11-09T16:35:32.996Z,100709.63
2022-11-09T16:38:40.031Z,100712.91
2022-11-09T16:41:43.919Z,100709.91
2022-11-09T16:44:49.188Z,100709.34
2022-11-09T16:47:57.034Z,100708.53
2022-11-09T16:50:59.901Z,100721.50
2022-11-09T16:54:04.114Z,100739.13
2022-11-09T16:57:06.797Z,100742.72
2022-11-09T17:00:10.673Z,100744.63
2022-11-09T17:03:14.136Z,100728.94
2022-11-09T17:06:17.023Z,100732.53
2022-11-09T17:09:21.708Z,100728.38
2022-11-09T17:12:24.800Z,100736.94
2022-11-09T17:15:27.900Z,100761.97
2022-11-09T17:18:30.588Z,100761.41
2022-11-09T17:21:33.300Z,100763.34
2022-11-09T17:24:37.337Z,100768.53
2022-11-09T17:27:40.185Z,100778.72
2022-11-09T17:30:42.926Z,100779.00
2022-11-09T17:33:45.901Z,100785.34
2022-11-09T17:37:03.651Z,100783.41
2022-11-09T17:40:09.798Z,100789.47
2022-11-09T17:43:12.609Z,100796.63
2022-11-09T17:46:16.933Z,100801.31
2022-11-09T17:49:19.750Z,100802.91
2022-11-09T17:52:22.420Z,100793.28
2022-11-09T17:55:26.601Z,100787.50
2022-11-09T17:58:30.155Z,100800.13
2022-11-09T18:01:39.520Z,100810.88
2022-11-09T18:04:43.782Z,100823.00
2022-11-09T18:07:46.443Z,100839.25
2022-11-09T18:10:51.152Z,100846.72
2022-11-09T18:13:54.314Z,100837.69
2022-11-09T18:16:59.618Z,100854.75
2022-11-09T18:20:02.462Z,100857.78
2022-11-09T18:23:05.123Z,100850.34
2022-11-09T18:26:10.159Z,100842.66
2022-11-09T18:29:13.061Z,100836.31
2022-11-09T18:32:15.799Z,100845.44
2022-11-09T18:35:18.630Z,100838.81
2022-11-09T18:38:24.322Z,100836.03
2022-11-09T18:41:30.801Z,100832.75
2022-11-09T18:44:33.667Z,100829.16
2022-11-09T18:47:36.528Z,100817.00
2022-11-09T18:50:39.665Z,100824.44
2022-11-09T18:53:44.517Z,100827.47
2022-11-09T18:56:49.044Z,100832.41
2022-11-09T18:59:51.761Z,100828.56
2022-11-09T19:02:54.498Z,100826.94
2022-11-09T19:05:57.440Z,100828.53
2022-11-09T19:09:17.763Z,100827.97
2022-11-09T19:12:22.046Z,100830.44
2022-11-09T19:15:24.774Z,100831.75
2022-11-09T19:18:27.641Z,100832.97
2022-11-09T19:21:37.990Z,100833.97
2022-11-09T19:24:40.874Z,100841.38
2022-11-09T19:27:44.947Z,100843.56
2022-11-09T19:30:47.615Z,100842.16
2022-11-09T19:33:50.283Z,100852.31
2022-11-09T19:36:52.987Z,100858.06
2022-11-09T19:39:55.739Z,100864.69
2022-11-09T19:42:59.792Z,100870.72
2022-11-09T19:46:05.188Z,100878.09
2022-11-09T19:49:09.241Z,100876.97
2022-11-09T19:52:12.695Z,100875.88
2022-11-09T19:55:15.642Z,100884.06
2022-11-09T19:58:19.976Z,100883.22
2022-11-09T20:01:23.582Z,100890.09
2022-11-09T20:04:26.364Z,100896.41
2022-11-09T20:07:29.587Z,100894.97
2022-11-09T20:10:32.452Z,100896.06
2022-11-09T20:13:39.074Z,100896.31
2022-11-09T20:16:44.391Z,100896.25
2022-11-09T20:19:47.102Z,100906.13
2022-11-09T20:22:50.013Z,100903.03
2022-11-09T20:25:52.839Z,100913.19
2022-11-09T20:28:56.972Z,100912.59
2022-11-09T20:31:59.796Z,100915.53
2022-11-09T20:35:02.691Z,100919.63
2022-11-09T20:38:05.521Z,100916.59
2022-11-09T20:41:11.346Z,100913.28
2022-11-09T20:44:15.591Z,100917.13
2022-11-09T20:47:30.292Z,100926.13
2022-11-09T20:50:40.925Z,100929.41
2022-11-09T20:53:44.174Z,100925.50
2022-11-09T20:56:46.969Z,100925.81
2022-11-09T20:59:51.215Z,100928.81
2022-11-09T21:02:53.952Z,100936.25
2022-11-09T21:05:59.096Z,100940.13
2022-11-09T21:09:04.320Z,100938.31
2022-11-09T21:12:22.460Z,100947.00
2022-11-09T21:15:26.574Z,100943.78
2022-11-09T21:18:29.244Z,100939.41
2022-11-09T21:21:36.210Z,100939.94
2022-11-09T21:24:57.098Z,100939.72
2022-11-09T21:28:20.027Z,100943.28
2022-11-09T21:31:24.413Z,100954.03
2022-11-09T21:34:29.506Z,100942.75
2022-11-09T21:37:35.636Z,100952.63
2022-11-09T21:40:38.353Z,100954.03
2022-11-09T21:43:41.162Z,100948.25
2022-11-09T21:46:46.252Z,100957.41
2022-11-09T21:49:49.040Z,100960.16
2022-11-09T21:52:51.878Z,100970.88
2022-11-09T21:55:54.599Z,100969.22
2022-11-09T21:58:57.703Z,100960.09
2022-11-09T22:02:01.766Z,100964.84
2022-11-09T22:05:05.003Z,100964.00
2022-11-09T22:08:08.007Z,100972.25
2022-11-09T22:11:13.270Z,100977.78
2022-11-09T22:14:35.973Z,100973.59
2022-11-09T22:17:40.174Z,100981.50
2022-11-09T22:20:56.978Z,100984.66
2022-11-09T22:24:00.494Z,100990.66
2022-11-09T22:27:03.335Z,100990.56
2022-11-09T22:30:07.332Z,100995.06
2022-11-09T22:33:11.614Z,101005.47
2022-11-09T22:36:15.313Z,100995.88
2022-11-09T22:39:18.211Z,101006.25
2022-11-09T22:42:21.042Z,101005.09
2022-11-09T22:45:23.927Z,101009.47
2022-11-09T22:48:28.344Z,101016.06
2022-11-09T22:51:31.372Z,101022.16
2022-11-09T22:54:34.230Z,101024.03
2022-11-09T22:57:37.872Z,101032.72
2022-11-09T23:00:41.770Z,101037.13
2022-11-09T23:03:45.867Z,101041.81
2022-11-09T23:06:48.892Z,101043.72
2022-11-09T23:09:51.765Z,101039.72
2022-11-09T23:12:54.424Z,101050.06
2022-11-09T23:15:58.528Z,101039.91
2022-11-09T23:19:02.610Z,101044.31
2022-11-09T23:22:05.501Z,101044.72
2022-11-09T23:25:26.712Z,101052.00
2022-11-09T23:28:29.564Z,101060.31
2022-11-09T23:31:32.402Z,101061.72
2022-11-09T23:34:36.446Z,101064.56
2022-11-09T23:37:39.817Z,101067.88
2022-11-09T23:40:42.531Z,101069.47
2022-11-09T23:43:49.249Z,101070.94
2022-11-09T23:46:52.443Z,101085.47
2022-11-09T23:49:56.711Z,101081.06
2022-11-09T23:53:02.875Z,101079.22
2022-11-09T23:56:07.975Z,101080.19
2022-11-09T23:59:10.671Z,101083.84
